Time;durP1;ratioP1;P1;durP2;ratioP2;P2;SDS_P1;SDS_P2;PMS_P1;PMS_P2;Temp;Humidity;BMP_temperature;BMP_pressure;BME280_temperature;BME280_humidity;BME280_pressure;Samples;Min_cycle;Max_cycle;Signal;HPM_P1;HPM_P2
2023/04/30 00:04:10;;;;;;;10.40;9.30;;;;;;;14.23;48.18;100063.09;10386546;28;20237;-70
2023/04/30 00:09:12;;;;;;;11.23;9.27;;;;;;;13.64;49.46;100073.34;10385188;28;20491;-69
2023/04/30 00:14:14;;;;;;;10.07;8.60;;;;;;;15.82;46.63;100061.50;10392931;28;20356;-69
2023/04/30 00:19:15;;;;;;;10.00;8.93;;;;;;;14.59;48.27;100083.50;10393160;28;20232;-70
2023/04/30 00:24:17;;;;;;;10.60;9.50;;;;;;;13.33;49.70;100046.06;10395303;28;20327;-68
2023/04/30 00:29:19;;;;;;;11.63;9.70;;;;;;;13.00;50.10;100017.88;10398859;28;20234;-69
2023/04/30 00:34:20;;;;;;;10.80;9.70;;;;;;;13.25;50.02;100057.75;10395009;28;20610;-68
2023/04/30 00:39:22;;;;;;;10.63;9.53;;;;;;;14.18;48.54;100023.34;10395271;28;20299;-70
2023/04/30 00:44:23;;;;;;;11.90;10.13;;;;;;;13.43;49.69;100062.66;10389626;28;20243;-70
2023/04/30 00:49:25;;;;;;;13.03;9.60;;;;;;;14.98;47.59;100043.38;10391364;28;20219;-69
2023/04/30 00:54:27;;;;;;;13.07;10.17;;;;;;;12.72;50.15;100007.97;10392096;28;20621;-69
2023/04/30 00:59:29;;;;;;;12.07;9.97;;;;;;;13.88;49.05;100081.97;10392765;28;20215;-68
2023/04/30 01:04:31;;;;;;;11.40;10.17;;;;;;;13.28;49.63;100057.41;10394131;28;20320;-70
2023/04/30 01:09:33;;;;;;;11.43;10.27;;;;;;;14.11;49.62;100072.81;10389808;28;20209;-69
2023/04/30 01:15:00;;;;;;;11.53;10.13;;;;;;;13.97;48.78;100066.47;10385273;28;20228;-69
2023/04/30 01:20:03;;;;;;;11.80;10.60;;;;;;;13.76;48.65;100029.78;10388656;28;20240;-69
2023/04/30 01:25:38;;;;;;;11.50;10.40;;;;;;;13.28;49.85;100047.47;10391206;28;20255;-69
2023/04/30 01:30:43;;;;;;;13.30;11.43;;;;;;;13.76;49.35;100062.03;10389104;28;20229;-70
2023/04/30 01:36:09;;;;;;;12.60;11.20;;;;;;;13.58;49.22;100051.78;10394823;28;20356;-69
2023/04/30 01:41:32;;;;;;;12.37;11.07;;;;;;;13.35;50.42;100070.91;10389614;28;20221;-69
2023/04/30 01:46:34;;;;;;;13.10;10.83;;;;;;;12.88;50.17;100024.81;10390248;28;20841;-70
2023/04/30 01:51:40;;;;;;;11.50;10.30;;;;;;;14.82;47.54;100045.44;10391659;28;20232;-70
2023/04/30 01:57:01;;;;;;;14.07;11.07;;;;;;;13.42;49.60;100047.56;10388069;28;20228;-69
2023/04/30 02:02:03;;;;;;;15.53;10.03;;;;;;;14.00;49.44;100066.94;10391589;28;20241;-71
2023/04/30 02:07:04;;;;;;;13.93;10.77;;;;;;;13.75;49.56;100079.19;10390256;28;20731;-69
2023/04/30 02:12:06;;;;;;;12.37;11.10;;;;;;;13.77;49.32;100079.84;10393390;28;21000;-69
2023/04/30 02:17:08;;;;;;;13.63;11.47;;;;;;;12.59;50.55;100036.50;10392554;28;20234;-69
2023/04/30 02:22:09;;;;;;;13.00;11.70;;;;;;;12.74;50.91;100048.88;10390729;28;20654;-69
2023/04/30 02:27:11;;;;;;;15.43;12.20;;;;;;;12.69;50.85;100058.53;10389475;28;20224;-70
2023/04/30 02:32:13;;;;;;;12.43;11.17;;;;;;;12.48;50.72;100025.28;10385194;28;20244;-69
2023/04/30 02:37:15;;;;;;;13.00;11.70;;;;;;;14.21;49.57;100065.19;10388908;28;20244;-69
2023/04/30 02:42:17;;;;;;;14.47;11.47;;;;;;;13.46;49.21;100043.44;10341645;23;20237;-38
2023/04/30 02:47:18;;;;;;;13.40;12.00;;;;;;;13.45;50.45;100061.44;10337448;28;20236;-38
2023/04/30 02:52:21;;;;;;;13.87;11.90;;;;;;;13.44;49.51;100061.63;10337988;28;20855;-39
2023/04/30 02:57:23;;;;;;;12.30;10.67;;;;;;;13.66;49.42;100047.09;10334659;28;20614;-39
2023/04/30 03:02:24;;;;;;;16.13;12.10;;;;;;;13.87;49.55;100063.31;10330608;28;20233;-38
2023/04/30 03:07:26;;;;;;;12.73;11.40;;;;;;;12.82;50.72;100053.28;10335174;28;20714;-38
2023/04/30 03:12:28;;;;;;;13.30;12.00;;;;;;;12.07;51.77;100006.25;10336387;28;20240;-38
2023/04/30 03:17:30;;;;;;;14.33;12.33;;;;;;;13.48;50.04;100054.88;10334544;28;20576;-39
2023/04/30 03:22:31;;;;;;;15.40;12.03;;;;;;;12.47;51.07;100046.94;10335260;28;20225;-38
2023/04/30 03:27:33;;;;;;;13.27;11.87;;;;;;;12.59;50.86;100045.41;10332484;28;20587;-39
2023/04/30 03:32:35;;;;;;;13.83;12.30;;;;;;;13.97;49.24;100045.81;10334013;28;20229;-38
2023/04/30 03:37:37;;;;;;;13.70;11.90;;;;;;;14.21;48.05;100049.03;10332533;28;20248;-38
2023/04/30 03:42:38;;;;;;;12.20;11.00;;;;;;;13.94;49.41;100058.84;10333504;28;20246;-39
2023/04/30 03:47:42;;;;;;;13.40;11.27;;;;;;;12.54;50.79;100048.66;10334824;28;20725;-38
2023/04/30 03:52:44;;;;;;;12.63;11.23;;;;;;;12.04;51.79;100028.88;10343588;28;20316;-39
2023/04/30 03:57:46;;;;;;;14.63;11.90;;;;;;;11.88;51.03;99999.59;10340275;28;20224;-38
2023/04/30 04:02:48;;;;;;;12.93;11.63;;;;;;;13.27;49.22;100035.03;10341307;28;20233;-38
2023/04/30 04:07:50;;;;;;;12.53;11.17;;;;;;;13.69;48.95;100058.50;10342213;28;20233;-38
2023/04/30 04:13:16;;;;;;;13.00;10.53;;;;;;;15.03;46.64;100110.94;10339727;28;20608;-39
2023/04/30 04:18:41;;;;;;;13.00;10.97;;;;;;;14.64;46.17;100046.00;10338822;28;20670;-38
2023/04/30 04:24:08;;;;;;;11.70;10.53;;;;;;;14.97;46.64;100096.44;10336299;28;20213;-38
2023/04/30 04:29:34;;;;;;;11.70;10.50;;;;;;;14.57;46.89;100085.56;10339193;28;20663;-40
2023/04/30 04:35:00;;;;;;;11.20;10.10;;;;;;;14.94;46.43;100088.75;10339335;28;20244;-38
2023/04/30 04:40:27;;;;;;;11.73;10.03;;;;;;;14.77;46.64;100088.28;10337131;28;20225;-41
2023/04/30 04:45:53;;;;;;;13.30;9.60;;;;;;;14.72;46.86;100070.06;10342147;28;21256;-39
2023/04/30 04:51:19;;;;;;;12.07;10.50;;;;;;;14.54;47.19;100094.03;10340680;28;20317;-38
2023/04/30 04:56:45;;;;;;;10.53;9.53;;;;;;;13.24;48.26;100066.84;10340881;28;20697;-38
2023/04/30 05:02:11;;;;;;;11.63;10.20;;;;;;;13.55;48.65;100084.44;10336981;28;21120;-40
2023/04/30 05:07:36;;;;;;;11.13;10.03;;;;;;;12.70;49.96;100063.72;10337477;28;20710;-39
2023/04/30 05:13:02;;;;;;;11.23;10.07;;;;;;;13.48;48.88;100082.56;10337041;28;20225;-40
2023/04/30 05:18:28;;;;;;;11.17;9.87;;;;;;;13.19;48.83;100080.03;10338887;28;20662;-38
2023/04/30 05:23:54;;;;;;;11.90;10.67;;;;;;;14.25;48.26;100089.81;10337474;28;20304;-37
2023/04/30 05:29:20;;;;;;;12.97;10.27;;;;;;;13.73;49.28;100094.69;10335862;28;20200;-38
2023/04/30 05:34:46;;;;;;;11.87;10.47;;;;;;;13.09;49.87;100112.59;10334921;28;21980;-40
2023/04/30 05:40:12;;;;;;;12.83;10.83;;;;;;;14.72;48.24;100117.72;10340526;28;20209;-38
2023/04/30 05:45:38;;;;;;;11.53;10.33;;;;;;;13.21;49.82;100086.03;10336555;28;20706;-38
2023/04/30 05:51:07;;;;;;;11.40;9.90;;;;;;;14.69;48.59;100100.09;10338658;28;20229;-39
2023/04/30 05:56:33;;;;;;;12.20;10.93;;;;;;;13.94;49.81;100104.56;10333600;28;20829;-42
2023/04/30 06:01:59;;;;;;;13.30;10.30;;;;;;;14.35;48.63;100101.84;10337287;28;20213;-39
2023/04/30 06:07:25;;;;;;;10.87;9.77;;;;;;;13.24;49.75;100074.91;10333585;28;20229;-38
2023/04/30 06:12:51;;;;;;;11.93;9.17;;;;;;;15.53;46.73;100087.09;10334582;28;20225;-38
2023/04/30 06:18:17;;;;;;;10.10;8.83;;;;;;;14.85;47.48;100085.44;10335275;28;20220;-39
2023/04/30 06:23:43;;;;;;;11.20;7.97;;;;;;;15.37;46.90;100099.16;10330030;28;20628;-38
2023/04/30 06:29:09;;;;;;;10.17;8.27;;;;;;;14.05;47.25;100055.53;10337265;28;20205;-43
2023/04/30 06:34:35;;;;;;;9.60;8.60;;;;;;;14.40;48.08;100082.41;10334209;28;20605;-39
2023/04/30 06:40:01;;;;;;;9.40;8.03;;;;;;;14.17;48.65;100085.44;10332786;28;20213;-39
2023/04/30 06:45:27;;;;;;;10.27;8.43;;;;;;;15.08;47.17;100087.75;10333636;28;20252;-41
2023/04/30 06:50:53;;;;;;;8.57;7.60;;;;;;;15.65;45.96;100087.28;10332681;28;20220;-38
2023/04/30 06:56:20;;;;;;;9.23;7.60;;;;;;;14.66;47.03;100068.19;10335435;28;20643;-39
2023/04/30 07:01:46;;;;;;;9.10;8.20;;;;;;;13.93;47.49;100020.31;10332074;28;20233;-42
2023/04/30 07:07:12;;;;;;;9.80;7.73;;;;;;;15.50;45.95;100036.25;10328059;28;20233;-39
2023/04/30 07:12:38;;;;;;;9.17;6.93;;;;;;;14.44;47.83;100085.53;10335071;28;20217;-39
2023/04/30 07:18:04;;;;;;;11.10;7.93;;;;;;;15.36;45.58;100016.59;10332317;28;20519;-38
2023/04/30 07:23:30;;;;;;;8.47;7.57;;;;;;;15.66;45.79;100029.63;10342533;28;20860;-39
2023/04/30 07:28:56;;;;;;;8.80;7.80;;;;;;;16.43;44.61;100064.78;10342510;28;20270;-38
2023/04/30 07:35:13;;;;;;;9.03;7.97;;;;;;;14.93;46.51;100052.06;10342643;28;20222;-38
2023/04/30 07:41:30;;;;;;;9.03;8.13;;;;;;;15.87;45.09;100025.78;10339326;28;20222;-39
2023/04/30 07:47:47;;;;;;;8.70;7.70;;;;;;;15.51;45.72;100005.56;10344725;28;20250;-39
2023/04/30 07:54:04;;;;;;;8.80;7.90;;;;;;;15.51;45.34;99998.28;10339367;28;20220;-39
2023/04/30 08:00:20;;;;;;;12.93;7.77;;;;;;;15.46;45.36;99991.88;10344511;28;20202;-39
2023/04/30 08:06:36;;;;;;;9.70;7.47;;;;;;;15.74;45.82;100029.41;10337732;28;20234;-41
2023/04/30 09:38:31;;;;;;;7.83;5.53;;;;;;;18.29;39.71;99871.84;10353293;28;20587;-39
2023/04/30 09:43:32;;;;;;;5.73;4.77;;;;;;;16.61;40.74;99907.38;10396754;28;20259;-39
2023/04/30 09:48:34;;;;;;;6.00;4.90;;;;;;;16.46;40.96;99915.00;10391998;28;20224;-39
2023/04/30 09:53:41;;;;;;;5.43;4.80;;;;;;;17.17;39.89;99917.25;10393754;28;20239;-39
2023/04/30 09:58:46;;;;;;;5.27;4.77;;;;;;;17.18;39.71;99870.22;10394366;28;20228;-40
2023/04/30 10:03:49;;;;;;;5.50;4.80;;;;;;;18.58;38.49;99847.59;10389265;28;20233;-41
2023/04/30 10:08:55;;;;;;;5.23;4.50;;;;;;;19.23;38.69;99813.19;10390933;28;20312;-40
2023/04/30 10:14:02;;;;;;;6.33;5.00;;;;;;;18.90;38.47;99839.91;10392505;28;20233;-39
2023/04/30 10:19:17;;;;;;;5.23;4.73;;;;;;;18.68;38.78;99822.63;10395513;28;20728;-40
2023/04/30 10:24:20;;;;;;;5.87;5.30;;;;;;;18.46;38.65;99853.84;10392815;28;20251;-40
2023/04/30 10:29:22;;;;;;;6.93;5.17;;;;;;;18.41;38.38;99839.38;10390256;28;20239;-40
2023/04/30 10:34:44;;;;;;;7.80;5.20;;;;;;;19.27;37.97;99758.22;10391252;28;20237;-41
2023/04/30 10:39:46;;;;;;;5.60;4.33;;;;;;;18.23;38.86;99837.53;10393098;28;20259;-40
2023/04/30 10:44:48;;;;;;;6.27;4.53;;;;;;;18.74;38.18;99762.88;10393107;28;20259;-39
2023/04/30 10:49:49;;;;;;;6.90;4.53;;;;;;;18.28;38.23;99822.25;10386842;28;20232;-39
2023/04/30 10:54:51;;;;;;;6.37;4.40;;;;;;;18.75;37.21;99731.16;10384878;28;20736;-40
2023/04/30 11:00:19;;;;;;;9.80;4.60;;;;;;;19.05;37.78;99760.78;10392691;28;20244;-40
2023/04/30 11:07:14;;;;;;;4.37;3.97;;;;;;;15.74;41.72;99896.34;10507845;27;20318;-70
2023/04/30 11:12:27;;;;;;;4.73;4.30;;;;;;;16.89;41.33;99823.13;10431714;28;20227;-70
2023/04/30 11:17:30;;;;;;;3.50;3.20;;;;;;;17.70;40.04;99795.91;10435605;28;20239;-70
2023/04/30 11:22:34;;;;;;;4.37;3.60;;;;;;;16.91;39.61;99829.13;10428817;28;20715;-70
2023/04/30 11:27:41;;;;;;;4.07;3.63;;;;;;;16.58;40.20;99854.66;10433680;28;20223;-71
2023/04/30 11:32:47;;;;;;;4.07;3.70;;;;;;;17.87;40.11;99763.59;10425531;28;20644;-70
2023/04/30 11:37:54;;;;;;;4.57;3.97;;;;;;;17.77;39.12;99785.00;10433554;28;20235;-70
2023/04/30 11:42:56;;;;;;;5.43;3.97;;;;;;;17.28;39.11;99782.34;10435184;28;20227;-70
2023/04/30 11:47:57;;;;;;;4.03;3.17;;;;;;;17.93;38.60;99773.47;10436300;28;20627;-69
2023/04/30 11:53:04;;;;;;;3.63;3.27;;;;;;;17.47;38.40;99807.47;10455240;28;21036;-70
2023/04/30 11:58:08;;;;;;;3.33;3.03;;;;;;;17.72;37.68;99797.31;10460782;28;20263;-70
2023/04/30 12:03:13;;;;;;;4.00;3.60;;;;;;;16.91;37.41;99780.50;10465261;28;20227;-74
2023/04/30 12:08:18;;;;;;;4.40;3.30;;;;;;;16.80;37.76;99801.00;10419843;28;20236;-70
2023/04/30 12:13:56;;;;;;;4.63;3.10;;;;;;;16.91;37.42;99802.09;10402253;28;20251;-70
2023/04/30 12:18:58;;;;;;;3.77;3.10;;;;;;;16.53;37.56;99772.63;10482347;28;20231;-73
2023/04/30 12:24:00;;;;;;;4.60;3.37;;;;;;;17.31;36.96;99796.22;10476255;28;20231;-70
2023/04/30 12:29:08;;;;;;;3.57;3.23;;;;;;;17.59;36.45;99796.69;10475024;28;20227;-71
2023/04/30 12:34:12;;;;;;;3.27;2.97;;;;;;;18.10;36.70;99757.34;10473279;28;20297;-71
2023/04/30 12:39:39;;;;;;;4.30;3.23;;;;;;;17.44;37.69;99761.94;10433275;28;20223;-71
2023/04/30 12:44:45;;;;;;;3.63;3.00;;;;;;;17.82;37.15;99788.66;10475004;28;20585;-68
2023/04/30 12:49:48;;;;;;;3.37;2.70;;;;;;;18.25;36.54;99746.03;10478174;28;20259;-70
2023/04/30 12:54:49;;;;;;;4.40;4.00;;;;;;;18.84;37.51;99711.56;10475412;28;20227;-68
2023/04/30 12:59:51;;;;;;;4.17;3.07;;;;;;;17.65;36.73;99758.72;10480081;28;20241;-70
2023/04/30 13:04:53;;;;;;;4.27;2.73;;;;;;;18.48;35.51;99717.34;10478675;28;20250;-69
2023/04/30 13:09:55;;;;;;;3.50;3.20;;;;;;;19.26;35.64;99694.16;10477702;28;20239;-69
2023/04/30 13:14:57;;;;;;;3.43;3.13;;;;;;;18.73;36.37;99660.94;10479609;28;20286;-69
2023/04/30 13:19:59;;;;;;;4.33;3.63;;;;;;;18.48;36.57;99693.75;10473030;28;20231;-70
2023/04/30 13:25:00;;;;;;;4.50;3.43;;;;;;;18.93;36.47;99682.22;10477332;28;20231;-71
2023/04/30 13:30:03;;;;;;;4.13;3.47;;;;;;;18.67;36.29;99674.63;10476705;28;20739;-71
2023/04/30 13:35:06;;;;;;;4.00;3.37;;;;;;;18.65;36.31;99655.88;10472676;28;20984;-71
2023/04/30 13:40:08;;;;;;;3.57;3.00;;;;;;;19.97;35.65;99563.34;10476409;28;20242;-71
2023/04/30 13:45:11;;;;;;;3.33;3.03;;;;;;;18.86;36.13;99686.94;10474113;28;20236;-71
2023/04/30 13:50:12;;;;;;;3.97;3.37;;;;;;;18.26;36.17;99675.41;10477987;28;20242;-71
2023/04/30 13:55:14;;;;;;;4.37;3.63;;;;;;;18.93;36.64;99636.13;10477913;28;20223;-71
2023/04/30 14:00:16;;;;;;;3.70;3.40;;;;;;;18.77;36.19;99640.38;10479161;28;20223;-71
2023/04/30 14:05:18;;;;;;;3.50;3.20;;;;;;;18.29;35.73;99638.94;10477602;28;20235;-71
2023/04/30 14:10:19;;;;;;;7.80;3.23;;;;;;;19.31;35.63;99587.66;10477141;28;20242;-71
2023/04/30 14:15:21;;;;;;;4.53;3.60;;;;;;;19.10;35.45;99591.94;10473187;28;20756;-71
2023/04/30 14:20:24;;;;;;;4.00;3.33;;;;;;;18.66;36.05;99597.94;10478481;28;20235;-71
2023/04/30 14:25:25;;;;;;;3.80;3.07;;;;;;;18.67;35.37;99651.03;10478566;28;20246;-71
2023/04/30 14:30:27;;;;;;;4.27;3.33;;;;;;;19.10;34.54;99592.75;10474712;28;20231;-71
2023/04/30 14:35:29;;;;;;;4.30;3.40;;;;;;;18.95;35.34;99619.63;10474964;28;20425;-71
2023/04/30 14:40:30;;;;;;;3.30;3.00;;;;;;;19.17;35.46;99587.97;10472563;28;20301;-70
2023/04/30 14:45:32;;;;;;;4.67;3.17;;;;;;;18.97;35.46;99587.66;10472969;22;20295;-39
2023/04/30 14:50:34;;;;;;;4.90;3.10;;;;;;;19.08;34.82;99602.19;10430526;28;20220;-41
2023/04/30 14:55:36;;;;;;;4.93;3.90;;;;;;;17.75;36.30;99586.84;10432246;28;20223;-43
2023/04/30 15:00:38;;;;;;;4.90;3.53;;;;;;;17.90;36.23;99595.31;10432435;28;20585;-39
2023/04/30 15:05:40;;;;;;;3.67;3.27;;;;;;;18.81;35.91;99611.75;10451295;28;20234;-41
2023/04/30 15:10:42;;;;;;;4.83;3.00;;;;;;;18.53;35.71;99606.34;10469122;28;20227;-43
2023/04/30 15:15:45;;;;;;;3.83;3.40;;;;;;;18.67;35.46;99609.59;10421581;28;20255;-42
2023/04/30 15:20:47;;;;;;;4.23;3.60;;;;;;;19.55;35.36;99562.00;10442350;28;20297;-41
2023/04/30 15:25:49;;;;;;;3.50;3.20;;;;;;;18.90;35.07;99568.78;10461437;28;20239;-40
2023/04/30 15:30:51;;;;;;;2.90;2.70;;;;;;;19.30;35.29;99573.28;10430515;28;20227;-40
2023/04/30 15:35:53;;;;;;;2.97;2.67;;;;;;;19.57;34.80;99521.06;10450730;28;20899;-42
2023/04/30 15:40:56;;;;;;;5.03;3.93;;;;;;;19.13;35.76;99572.44;10451061;28;20214;-42
2023/04/30 15:45:58;;;;;;;4.27;3.70;;;;;;;19.32;34.89;99568.41;10457832;28;20250;-45
2023/04/30 15:51:00;;;;;;;3.40;2.97;;;;;;;19.58;34.50;99545.19;10485742;28;20575;-40
2023/04/30 15:56:03;;;;;;;3.27;2.93;;;;;;;19.83;34.38;99522.19;10493355;28;20231;-41
2023/04/30 16:01:05;;;;;;;4.47;3.40;;;;;;;19.72;34.27;99536.69;10473914;28;20326;-40
2023/04/30 16:06:08;;;;;;;4.07;3.47;;;;;;;19.87;34.42;99476.34;10437317;28;20232;-42
2023/04/30 16:11:10;;;;;;;4.23;3.33;;;;;;;19.27;34.66;99537.69;10438106;28;20298;-39
2023/04/30 16:16:12;;;;;;;3.83;3.47;;;;;;;19.30;34.57;99515.47;10434824;28;20231;-43
2023/04/30 16:21:14;;;;;;;6.37;3.40;;;;;;;19.99;34.57;99470.78;10440402;28;20239;-39
2023/04/30 16:26:16;;;;;;;5.07;3.40;;;;;;;19.19;35.48;99539.72;10453888;28;20718;-42
2023/04/30 16:31:21;;;;;;;3.57;3.27;;;;;;;20.02;34.55;99484.66;10457956;28;20204;-41
2023/04/30 16:36:23;;;;;;;3.70;2.97;;;;;;;18.81;35.36;99467.25;10453957;28;20879;-42
2023/04/30 16:41:24;;;;;;;4.27;3.30;;;;;;;21.01;33.73;99428.22;10461872;28;20296;-39
2023/04/30 16:46:27;;;;;;;3.90;3.00;;;;;;;19.84;33.91;99482.28;10446171;28;20224;-39
2023/04/30 16:51:31;;;;;;;5.40;3.10;;;;;;;20.58;33.77;99462.69;10439721;28;20608;-41
2023/04/30 16:56:33;;;;;;;3.17;2.83;;;;;;;21.25;33.11;99416.91;10442979;28;20236;-39
2023/04/30 17:01:35;;;;;;;3.93;2.90;;;;;;;21.05;33.78;99467.41;10433788;28;20211;-40
2023/04/30 17:06:37;;;;;;;3.17;2.87;;;;;;;19.83;34.07;99453.50;10419434;28;20278;-40
2023/04/30 17:11:40;;;;;;;3.47;3.13;;;;;;;19.78;33.77;99481.41;10424084;28;20258;-40
2023/04/30 17:16:43;;;;;;;3.33;3.03;;;;;;;20.97;32.87;99405.34;10421586;28;20220;-39
2023/04/30 17:21:45;;;;;;;3.70;3.40;;;;;;;20.25;33.78;99453.69;10418964;28;20208;-40
2023/04/30 17:26:47;;;;;;;4.03;3.13;;;;;;;20.14;33.90;99484.50;10420123;28;20232;-39
2023/04/30 17:31:49;;;;;;;5.23;3.50;;;;;;;19.36;34.96;99454.81;10420531;28;20218;-39
2023/04/30 17:36:50;;;;;;;4.57;3.60;;;;;;;20.21;33.62;99487.06;10423810;28;20228;-41
2023/04/30 17:41:52;;;;;;;3.63;3.17;;;;;;;20.83;32.87;99461.25;10418742;28;20210;-39
2023/04/30 17:46:54;;;;;;;3.57;3.20;;;;;;;21.25;32.99;99463.16;10419186;28;20345;-41
2023/04/30 17:51:57;;;;;;;6.07;3.27;;;;;;;21.69;31.92;99451.16;10404180;28;20214;-39
2023/04/30 17:57:00;;;;;;;3.30;3.00;;;;;;;21.33;32.19;99410.16;10416768;28;20231;-40
2023/04/30 18:02:04;;;;;;;4.33;3.50;;;;;;;22.12;32.10;99427.31;10414325;28;20261;-42
2023/04/30 18:07:07;;;;;;;3.70;3.40;;;;;;;21.92;31.68;99438.97;10423040;28;20293;-41
2023/04/30 18:12:08;;;;;;;3.00;2.80;;;;;;;21.88;32.33;99422.34;10421438;28;20885;-42
2023/04/30 18:17:10;;;;;;;3.40;3.10;;;;;;;21.08;33.83;99430.69;10424807;28;20220;-41
2023/04/30 18:22:12;;;;;;;4.00;3.60;;;;;;;20.02;33.92;99441.22;10422874;28;20215;-42
2023/04/30 18:27:14;;;;;;;5.87;3.70;;;;;;;19.79;33.90;99436.91;10418061;28;20320;-43
2023/04/30 18:32:16;;;;;;;4.10;3.70;;;;;;;20.95;32.99;99489.13;10423189;28;20214;-39
2023/04/30 18:37:18;;;;;;;3.20;2.90;;;;;;;20.95;32.35;99461.06;10421168;28;20707;-43
2023/04/30 18:42:19;;;;;;;3.10;2.80;;;;;;;21.24;32.07;99456.09;10401387;28;20211;-39
2023/04/30 18:47:21;;;;;;;3.27;2.97;;;;;;;20.82;32.36;99468.63;10419351;28;20720;-42
2023/04/30 18:52:23;;;;;;;3.00;2.70;;;;;;;21.58;31.44;99467.44;10419893;28;20678;-40
2023/04/30 18:57:24;;;;;;;2.90;2.70;;;;;;;18.93;34.12;99450.94;10421786;28;20234;-42
2023/04/30 19:02:26;;;;;;;3.47;3.17;;;;;;;19.19;34.03;99514.50;10418999;28;20208;-42
2023/04/30 19:07:28;;;;;;;3.73;3.03;;;;;;;19.16;34.20;99534.78;10421290;28;20622;-42
2023/04/30 19:12:30;;;;;;;3.93;3.63;;;;;;;19.82;33.63;99534.09;10420291;28;20208;-43
2023/04/30 19:17:32;;;;;;;6.00;4.37;;;;;;;19.27;35.60;99491.56;10414010;28;20224;-43
2023/04/30 19:22:34;;;;;;;3.53;3.23;;;;;;;21.13;33.29;99428.00;10417323;28;20212;-42
2023/04/30 19:27:36;;;;;;;4.63;3.70;;;;;;;21.11;32.50;99475.63;10423690;28;20319;-40
2023/04/30 19:32:38;;;;;;;5.00;3.70;;;;;;;18.56;34.96;99489.38;10427554;28;20208;-43
2023/04/30 19:37:40;;;;;;;4.60;3.77;;;;;;;17.63;36.39;99511.94;10418670;28;20220;-44
2023/04/30 19:42:41;;;;;;;4.47;3.67;;;;;;;17.94;36.42;99549.63;10427782;28;20224;-42
2023/04/30 19:47:43;;;;;;;4.30;3.90;;;;;;;17.88;36.67;99562.22;10425825;28;20239;-44
2023/04/30 19:52:45;;;;;;;5.53;4.30;;;;;;;16.76;38.17;99545.00;10426532;28;20236;-42
2023/04/30 19:57:46;;;;;;;5.70;5.20;;;;;;;16.57;38.91;99549.63;10418849;28;20235;-41
2023/04/30 20:02:48;;;;;;;6.03;4.77;;;;;;;16.76;38.63;99542.28;10427183;28;20214;-42
2023/04/30 20:07:50;;;;;;;4.37;3.97;;;;;;;17.05;37.87;99553.28;10424347;28;20231;-42
2023/04/30 20:12:53;;;;;;;4.43;3.80;;;;;;;17.54;37.09;99540.38;10427185;28;20928;-42
2023/04/30 20:17:55;;;;;;;4.07;3.43;;;;;;;17.19;37.51;99543.88;10417469;28;20232;-42
2023/04/30 20:22:56;;;;;;;3.80;3.50;;;;;;;17.57;37.08;99545.31;10414788;28;20219;-42
2023/04/30 20:27:58;;;;;;;5.57;4.13;;;;;;;17.13;37.50;99561.06;10421395;28;20232;-41
2023/04/30 20:33:00;;;;;;;4.10;3.43;;;;;;;18.08;36.72;99553.69;10422837;28;20200;-41
2023/04/30 20:38:02;;;;;;;4.17;3.63;;;;;;;17.20;37.45;99558.25;10410913;28;20248;-41
2023/04/30 20:43:04;;;;;;;5.13;3.83;;;;;;;18.53;36.58;99506.09;10416841;28;20220;-41
2023/04/30 20:48:06;;;;;;;4.83;3.70;;;;;;;16.53;38.73;99527.66;10424387;28;20690;-41
2023/04/30 20:53:08;;;;;;;4.93;3.93;;;;;;;16.40;38.31;99506.25;10412876;28;20604;-43
2023/04/30 20:58:11;;;;;;;5.60;4.43;;;;;;;16.60;38.73;99543.75;10426000;28;20266;-41
2023/04/30 21:03:13;;;;;;;4.73;4.07;;;;;;;16.59;38.79;99542.94;10422436;28;20223;-41
2023/04/30 21:08:15;;;;;;;4.63;4.20;;;;;;;15.79;40.42;99526.94;10413405;28;20215;-41
2023/04/30 21:13:17;;;;;;;4.80;4.40;;;;;;;17.42;38.79;99547.66;10420498;28;20929;-41
2023/04/30 21:18:18;;;;;;;5.07;3.70;;;;;;;15.85;40.05;99567.31;10423010;28;20207;-42
2023/04/30 21:23:20;;;;;;;3.93;3.53;;;;;;;18.86;36.90;99501.75;10420399;28;20234;-41
2023/04/30 21:28:22;;;;;;;4.53;4.00;;;;;;;19.39;36.90;99484.97;10420208;28;20200;-41
2023/04/30 21:33:23;;;;;;;6.37;4.23;;;;;;;18.56;37.83;99500.19;10422958;28;20208;-41
2023/04/30 21:38:25;;;;;;;6.97;3.93;;;;;;;18.45;37.52;99518.16;10424134;28;20215;-42
2023/04/30 21:43:27;;;;;;;5.97;4.10;;;;;;;17.95;37.75;99526.91;10418740;28;20228;-41
2023/04/30 21:48:28;;;;;;;4.20;3.80;;;;;;;18.04;38.20;99556.06;10421063;28;20670;-42
2023/04/30 21:53:30;;;;;;;4.80;4.10;;;;;;;17.50;38.19;99515.66;10418498;28;20791;-41
2023/04/30 21:58:32;;;;;;;6.63;4.30;;;;;;;17.92;38.39;99534.44;10420938;28;20574;-41
2023/04/30 22:03:34;;;;;;;6.13;3.67;;;;;;;17.13;39.03;99553.78;10420262;28;20224;-38
2023/04/30 22:08:36;;;;;;;4.50;4.10;;;;;;;16.04;40.08;99534.94;10416078;28;20214;-41
2023/04/30 22:13:37;;;;;;;4.97;4.47;;;;;;;14.81;42.36;99513.06;10419332;28;20588;-41
2023/04/30 22:18:39;;;;;;;7.07;5.90;;;;;;;15.69;41.85;99554.44;10423263;28;20207;-41
2023/04/30 22:23:41;;;;;;;6.13;5.50;;;;;;;16.53;40.91;99533.03;10418544;28;20239;-41
2023/04/30 22:28:43;;;;;;;5.63;5.07;;;;;;;16.24;41.50;99548.19;10421468;28;20322;-42
2023/04/30 22:33:45;;;;;;;6.70;5.30;;;;;;;15.79;42.32;99546.66;10420446;28;20227;-41
2023/04/30 22:38:47;;;;;;;5.63;5.03;;;;;;;16.60;41.47;99530.25;10422225;28;20212;-41
2023/04/30 22:43:49;;;;;;;6.67;5.23;;;;;;;17.14;40.65;99517.56;10420938;28;20239;-42
2023/04/30 22:48:51;;;;;;;8.23;5.83;;;;;;;16.61;41.14;99540.81;10423784;28;20698;-40
2023/04/30 22:53:55;;;;;;;6.00;5.40;;;;;;;16.66;41.09;99505.03;10421498;28;20251;-41
2023/04/30 22:58:56;;;;;;;6.43;5.30;;;;;;;16.00;41.99;99529.16;10405099;28;20218;-42
2023/04/30 23:03:58;;;;;;;6.20;5.57;;;;;;;16.64;41.24;99533.34;10418019;28;20724;-41
2023/04/30 23:09:00;;;;;;;6.57;5.73;;;;;;;16.80;41.06;99543.47;10422444;28;20790;-40
2023/04/30 23:14:02;;;;;;;6.77;5.73;;;;;;;17.12;40.57;99540.47;10416594;28;20220;-42
2023/04/30 23:19:04;;;;;;;7.20;5.97;;;;;;;15.85;42.12;99553.84;10417580;28;20216;-41
2023/04/30 23:24:05;;;;;;;6.43;5.83;;;;;;;15.52;41.78;99519.94;10420325;28;20220;-40
2023/04/30 23:29:07;;;;;;;6.50;5.80;;;;;;;16.00;41.21;99529.16;10422066;28;20210;-40
2023/04/30 23:34:08;;;;;;;6.07;5.47;;;;;;;17.03;40.82;99526.50;10421770;28;20231;-40
2023/04/30 23:39:10;;;;;;;8.03;5.57;;;;;;;15.88;41.32;99521.00;10419335;28;20377;-40
2023/04/30 23:44:12;;;;;;;7.67;5.70;;;;;;;15.93;41.54;99562.69;10416543;28;20231;-41
2023/04/30 23:49:16;;;;;;;7.73;6.30;;;;;;;14.69;43.50;99545.28;10420389;28;20207;-40
2023/04/30 23:54:18;;;;;;;7.73;6.20;;;;;;;13.61;45.08;99490.31;10412745;28;20230;-40
2023/04/30 23:59:22;;;;;;;6.80;6.20;;;;;;;14.14;44.82;99551.19;10412859;28;20226;-40
